Weather at Sleipner B Platform

Public forecast

Using degrees Celsius for public forecast. Weather courtesy of forecast.io.

Closest aviation weather report (METAR) to Sleipner B Platform

Closest report is Sleipner A Platform, 6.7 nm (12.4 km) ESE.

2024/07/20 05:50 (retrieved 32 minutes ago)

ENSL 200550Z AUTO 14032KT 8000 -SHRA FEW068/// 16/15 Q1010 W14/S3

Closest aviation forecast (TAF) to Sleipner B Platform

Closest forecast is Stavanger Airport, Sola, 125.6 nm (232.5 km) ENE.

2024/07/20 06:39 (retrieved 0 seconds ago)

TAF ENZV 200500Z 2006/2106 13008KT CAVOK TEMPO 2022/2106 15015G25KT